sensor_id;sensor_type;location;lat;lon;timestamp;P1;P2;P0
74426;PMS7003;62859;53.906;27.430;2024-02-28T01:54:27;13.7;11;9
74426;PMS7003;62859;53.906;27.430;2024-02-28T02:00:06;12.7;10.7;8.3
74426;PMS7003;62859;53.906;27.430;2024-02-28T02:05:06;13.3;12.7;9
74426;PMS7003;62859;53.906;27.430;2024-02-28T02:09:39;13.3;12.7;9
74426;PMS7003;62859;53.906;27.430;2024-02-28T02:15:04;15.8;13.5;9.3
74426;PMS7003;62859;53.906;27.430;2024-02-28T02:20:04;15;14.3;9.3
74426;PMS7003;62859;53.906;27.430;2024-02-28T02:24:51;15;14.3;9.3
74426;PMS7003;62859;53.906;27.430;2024-02-28T02:30:04;15;14;9.3
74426;PMS7003;62859;53.906;27.430;2024-02-28T02:34:53;15;14;9.3
74426;PMS7003;62859;53.906;27.430;2024-02-28T02:40:02;15;13.7;9.3
74426;PMS7003;62859;53.906;27.430;2024-02-28T02:44:25;15;12.7;9.3
74426;PMS7003;62859;53.906;27.430;2024-02-28T02:50:02;17.7;14;9.7
74426;PMS7003;62859;53.906;27.430;2024-02-28T02:54:53;20.3;18.3;13.8
74426;PMS7003;62859;53.906;27.430;2024-02-28T03:00:04;18;15.7;10
74426;PMS7003;62859;53.906;27.430;2024-02-28T03:04:39;18;15.7;10
74426;PMS7003;62859;53.906;27.430;2024-02-28T03:10:04;13.8;13;9
74426;PMS7003;62859;53.906;27.430;2024-02-28T03:14:20;13.8;13;9
74426;PMS7003;62859;53.906;27.430;2024-02-28T03:20:02;13.3;11.7;8.7
74426;PMS7003;62859;53.906;27.430;2024-02-28T03:24:19;15;13.7;10.3
74426;PMS7003;62859;53.906;27.430;2024-02-28T03:29:25;14.7;14.3;9.3
74426;PMS7003;62859;53.906;27.430;2024-02-28T03:34:48;13.8;13;9
74426;PMS7003;62859;53.906;27.430;2024-02-28T03:39:55;15.3;13.7;10.7
74426;PMS7003;62859;53.906;27.430;2024-02-28T03:44:55;14.3;12;8.7
74426;PMS7003;62859;53.906;27.430;2024-02-28T03:49:46;16;15.3;10
74426;PMS7003;62859;53.906;27.430;2024-02-28T03:55:06;15.3;14.7;9.7
74426;PMS7003;62859;53.906;27.430;2024-02-28T03:59:30;15.3;14.7;9.7
74426;PMS7003;62859;53.906;27.430;2024-02-28T04:05:04;15;13.7;9.3
74426;PMS7003;62859;53.906;27.430;2024-02-28T04:10:06;15;12.8;9.5
74426;PMS7003;62859;53.906;27.430;2024-02-28T04:14:46;15;12.8;9.5
74426;PMS7003;62859;53.906;27.430;2024-02-28T04:19:28;17.3;16;10
74426;PMS7003;62859;53.906;27.430;2024-02-28T04:25:07;15.3;12;9.8
74426;PMS7003;62859;53.906;27.430;2024-02-28T04:29:38;15.3;12;9.8
74426;PMS7003;62859;53.906;27.430;2024-02-28T04:35:06;16.7;15.3;10
74426;PMS7003;62859;53.906;27.430;2024-02-28T04:39:56;16.7;15.3;10
74426;PMS7003;62859;53.906;27.430;2024-02-28T04:45:04;13.8;12.3;9
74426;PMS7003;62859;53.906;27.430;2024-02-28T04:49:20;13.8;12.3;9
74426;PMS7003;62859;53.906;27.430;2024-02-28T04:54:56;15.7;14.3;9.7
74426;PMS7003;62859;53.906;27.430;2024-02-28T04:59:28;16.3;13.3;9.3
74426;PMS7003;62859;53.906;27.430;2024-02-28T05:04:20;15.7;14.7;9.3
74426;PMS7003;62859;53.906;27.430;2024-02-28T05:09:28;16.8;15.3;10.3
74426;PMS7003;62859;53.906;27.430;2024-02-28T05:15:06;13.3;13.3;9.7
74426;PMS7003;62859;53.906;27.430;2024-02-28T05:19:56;13.3;13.3;9.7
74426;PMS7003;62859;53.906;27.430;2024-02-28T05:24:38;15;13.7;9.7
74426;PMS7003;62859;53.906;27.430;2024-02-28T05:30:06;14.3;11.3;8.7
74426;PMS7003;62859;53.906;27.430;2024-02-28T05:34:38;14.3;11.3;8.7
74426;PMS7003;62859;53.906;27.430;2024-02-28T05:39:30;16;12.3;9.3
74426;PMS7003;62859;53.906;27.430;2024-02-28T05:44:36;17.3;14;9.3
74426;PMS7003;62859;53.906;27.430;2024-02-28T05:49:30;14;12.3;9.3
74426;PMS7003;62859;53.906;27.430;2024-02-28T05:54:20;16;15.3;10
74426;PMS7003;62859;53.906;27.430;2024-02-28T05:59:56;17.7;15.3;10
74426;PMS7003;62859;53.906;27.430;2024-02-28T06:04:20;12.3;12.3;10
74426;PMS7003;62859;53.906;27.430;2024-02-28T06:09:46;15.8;13.5;9.3
74426;PMS7003;62859;53.906;27.430;2024-02-28T06:14:20;14.3;14.3;10.7
74426;PMS7003;62859;53.906;27.430;2024-02-28T06:20:06;17.5;15.8;11.3
74426;PMS7003;62859;53.906;27.430;2024-02-28T06:25:06;15.3;13;9.7
74426;PMS7003;62859;53.906;27.430;2024-02-28T06:29:20;15.3;13;9.7
74426;PMS7003;62859;53.906;27.430;2024-02-28T06:34:28;17.7;14.7;10.7
74426;PMS7003;62859;53.906;27.430;2024-02-28T06:39:46;14.3;12.7;9.3
74426;PMS7003;62859;53.906;27.430;2024-02-28T06:44:28;16.5;15.5;11
74426;PMS7003;62859;53.906;27.430;2024-02-28T06:49:46;17;14.3;11.7
74426;PMS7003;62859;53.906;27.430;2024-02-28T06:55:06;20;17;11.3
74426;PMS7003;62859;53.906;27.430;2024-02-28T06:59:28;20;17;11.3
74426;PMS7003;62859;53.906;27.430;2024-02-28T07:04:56;16.8;14.3;9.5
74426;PMS7003;62859;53.906;27.430;2024-02-28T07:09:28;17.3;15.3;10.7
74426;PMS7003;62859;53.906;27.430;2024-02-28T07:15:06;16.3;12.3;8.7
74426;PMS7003;62859;53.906;27.430;2024-02-28T07:19:48;16.3;12.3;8.7
74426;PMS7003;62859;53.906;27.430;2024-02-28T07:24:56;19.8;16.3;10.3
74426;PMS7003;62859;53.906;27.430;2024-02-28T07:29:36;17.3;15.7;9.7
74426;PMS7003;62859;53.906;27.430;2024-02-28T07:34:56;20.3;17.7;14
74426;PMS7003;62859;53.906;27.430;2024-02-28T07:40:06;28.8;25.5;20.3
74426;PMS7003;62859;53.906;27.430;2024-02-28T07:45:06;28;27;22
74426;PMS7003;62859;53.906;27.430;2024-02-28T07:49:20;28;27;22
74426;PMS7003;62859;53.906;27.430;2024-02-28T07:54:56;25.7;24.3;18.3
74426;PMS7003;62859;53.906;27.430;2024-02-28T08:00:06;16.8;14;10.3
74426;PMS7003;62859;53.906;27.430;2024-02-28T08:04:20;16.8;14;10.3
74426;PMS7003;62859;53.906;27.430;2024-02-28T08:09:20;16.3;13.7;10
74426;PMS7003;62859;53.906;27.430;2024-02-28T08:14:20;19.7;16;11.3
74426;PMS7003;62859;53.906;27.430;2024-02-28T08:19:28;15;13;9.8
74426;PMS7003;62859;53.906;27.430;2024-02-28T08:24:20;16.7;14;10.7
74426;PMS7003;62859;53.906;27.430;2024-02-28T08:29:36;19.3;16;11.7
74426;PMS7003;62859;53.906;27.430;2024-02-28T08:34:20;17.3;14;10.3
74426;PMS7003;62859;53.906;27.430;2024-02-28T08:40:06;17.3;15;10.7
74426;PMS7003;62859;53.906;27.430;2024-02-28T08:44:58;17.3;15;10.7
74426;PMS7003;62859;53.906;27.430;2024-02-28T08:50:06;18.3;17;13
74426;PMS7003;62859;53.906;27.430;2024-02-28T08:55:06;17;16.3;12.3
74426;PMS7003;62859;53.906;27.430;2024-02-28T08:59:56;17;16.3;12.3
74426;PMS7003;62859;53.906;27.430;2024-02-28T09:05:06;26.7;25;19
74426;PMS7003;62859;53.906;27.430;2024-02-28T09:10:06;21;19.7;15
74426;PMS7003;62859;53.906;27.430;2024-02-28T09:14:30;21;19.7;15
74426;PMS7003;62859;53.906;27.430;2024-02-28T09:19:56;20.5;17.8;13.3
74426;PMS7003;62859;53.906;27.430;2024-02-28T09:25:06;22.3;18.7;14
74426;PMS7003;62859;53.906;27.430;2024-02-28T09:29:40;22.3;18.7;14
74426;PMS7003;62859;53.906;27.430;2024-02-28T09:35:06;20;18.3;12.3
74426;PMS7003;62859;53.906;27.430;2024-02-28T09:39:37;20;18.3;12.3
74426;PMS7003;62859;53.906;27.430;2024-02-28T09:45:06;19.7;17;11
74426;PMS7003;62859;53.906;27.430;2024-02-28T09:50:06;20.7;18;11
74426;PMS7003;62859;53.906;27.430;2024-02-28T09:54:28;20.7;18;11
74426;PMS7003;62859;53.906;27.430;2024-02-28T09:59:28;19;16.8;11.3
74426;PMS7003;62859;53.906;27.430;2024-02-28T10:04:20;20;17.7;11.7
74426;PMS7003;62859;53.906;27.430;2024-02-28T10:09:20;17;15.7;11
74426;PMS7003;62859;53.906;27.430;2024-02-28T10:15:06;19.3;16.7;11.3
74426;PMS7003;62859;53.906;27.430;2024-02-28T10:19:57;19.3;16.7;11.3
74426;PMS7003;62859;53.906;27.430;2024-02-28T10:24:20;20;16.7;11.3
74426;PMS7003;62859;53.906;27.430;2024-02-28T10:30:06;17.3;14.8;10.8
74426;PMS7003;62859;53.906;27.430;2024-02-28T10:34:28;17.3;14.8;10.8
74426;PMS7003;62859;53.906;27.430;2024-02-28T10:39:38;19.3;17.7;12.3
74426;PMS7003;62859;53.906;27.430;2024-02-28T10:44:36;21;17;12
74426;PMS7003;62859;53.906;27.430;2024-02-28T10:50:06;20.3;17.5;11.8
74426;PMS7003;62859;53.906;27.430;2024-02-28T10:54:36;20.3;17.5;11.8
74426;PMS7003;62859;53.906;27.430;2024-02-28T10:59:56;19.7;17.3;11.7
74426;PMS7003;62859;53.906;27.430;2024-02-28T11:04:38;19.3;18;12
74426;PMS7003;62859;53.906;27.430;2024-02-28T11:09:46;16.7;16.3;11.7
74426;PMS7003;62859;53.906;27.430;2024-02-28T11:14:36;17;14.8;11.3
74426;PMS7003;62859;53.906;27.430;2024-02-28T11:20:13;19;15.3;11.3
74426;PMS7003;62859;53.906;27.430;2024-02-28T11:25:06;19.7;17.3;11.7
74426;PMS7003;62859;53.906;27.430;2024-02-28T11:29:21;19.7;17.3;11.7
74426;PMS7003;62859;53.906;27.430;2024-02-28T11:34:36;18.8;16.8;12
74426;PMS7003;62859;53.906;27.430;2024-02-28T11:39:20;18;15;11.7
74426;PMS7003;62859;53.906;27.430;2024-02-28T11:44:20;20.3;19.3;13
74426;PMS7003;62859;53.906;27.430;2024-02-28T11:49:32;20;18;12.7
74426;PMS7003;62859;53.906;27.430;2024-02-28T11:54:46;18.5;16.3;11.5
74426;PMS7003;62859;53.906;27.430;2024-02-28T11:59:46;16.7;16;12
74426;PMS7003;62859;53.906;27.430;2024-02-28T12:04:59;15.3;14.7;11
74426;PMS7003;62859;53.906;27.430;2024-02-28T12:09:20;17;15;11.3
74426;PMS7003;62859;53.906;27.430;2024-02-28T12:15:04;17;14.7;10.3
74426;PMS7003;62859;53.906;27.430;2024-02-28T12:19:20;17;14.7;10.3
74426;PMS7003;62859;53.906;27.430;2024-02-28T12:24:56;17.3;15.7;10.7
74426;PMS7003;62859;53.906;27.430;2024-02-28T12:29:50;14.5;14;10.3
74426;PMS7003;62859;53.906;27.430;2024-02-28T12:34:40;15.3;13.7;10
74426;PMS7003;62859;53.906;27.430;2024-02-28T12:40:06;14.7;13.3;9.3
74426;PMS7003;62859;53.906;27.430;2024-02-28T12:44:30;14.7;13.3;9.3
74426;PMS7003;62859;53.906;27.430;2024-02-28T12:49:40;15;13.5;10.3
74426;PMS7003;62859;53.906;27.430;2024-02-28T12:54:48;16.3;14;10
74426;PMS7003;62859;53.906;27.430;2024-02-28T13:00:06;15.7;15;10.3
74426;PMS7003;62859;53.906;27.430;2024-02-28T13:04:28;15.7;15;10.3
74426;PMS7003;62859;53.906;27.430;2024-02-28T13:09:20;15.3;13.8;10.3
74426;PMS7003;62859;53.906;27.430;2024-02-28T13:14:46;14.3;14.3;10
74426;PMS7003;62859;53.906;27.430;2024-02-28T13:19:20;18;14.3;10
74426;PMS7003;62859;53.906;27.430;2024-02-28T13:24:28;16.3;14.3;10
74426;PMS7003;62859;53.906;27.430;2024-02-28T13:30:06;16.3;14;10.3
74426;PMS7003;62859;53.906;27.430;2024-02-28T13:34:46;16.3;14;10.3
74426;PMS7003;62859;53.906;27.430;2024-02-28T13:39:56;19.3;15.7;11.7
74426;PMS7003;62859;53.906;27.430;2024-02-28T13:44:20;16.7;14.3;10.3
74426;PMS7003;62859;53.906;27.430;2024-02-28T13:49:56;15.3;13.5;9.5
74426;PMS7003;62859;53.906;27.430;2024-02-28T13:54:36;16.3;13.7;9.7
74426;PMS7003;62859;53.906;27.430;2024-02-28T13:59:48;18;14.3;9
74426;PMS7003;62859;53.906;27.430;2024-02-28T14:04:20;15.5;13.8;9.8
74426;PMS7003;62859;53.906;27.430;2024-02-28T14:10:06;15.7;13.7;9.7
74426;PMS7003;62859;53.906;27.430;2024-02-28T14:14:46;15.7;13.7;9.7
74426;PMS7003;62859;53.906;27.430;2024-02-28T14:20:06;17;15;10.3
74426;PMS7003;62859;53.906;27.430;2024-02-28T14:25:04;18.3;16;9.7
74426;PMS7003;62859;53.906;27.430;2024-02-28T14:29:48;18.3;16;9.7
74426;PMS7003;62859;53.906;27.430;2024-02-28T14:34:56;17.7;15.7;10.3
74426;PMS7003;62859;53.906;27.430;2024-02-28T14:39:28;18.3;15;10.7
74426;PMS7003;62859;53.906;27.430;2024-02-28T14:44:36;18.5;17.3;10.5
74426;PMS7003;62859;53.906;27.430;2024-02-28T14:49:20;19.7;15.3;11.3
74426;PMS7003;62859;53.906;27.430;2024-02-28T14:54:38;16.7;14;11
74426;PMS7003;62859;53.906;27.430;2024-02-28T14:59:20;18.3;16;11.7
74426;PMS7003;62859;53.906;27.430;2024-02-28T15:04:28;17;15.5;10.3
74426;PMS7003;62859;53.906;27.430;2024-02-28T15:09:46;19;16;10.3
74426;PMS7003;62859;53.906;27.430;2024-02-28T15:15:06;16.3;14.7;10.3
74426;PMS7003;62859;53.906;27.430;2024-02-28T15:19:56;16.3;14.7;10.3
74426;PMS7003;62859;53.906;27.430;2024-02-28T15:24:58;14.8;13.8;10
74426;PMS7003;62859;53.906;27.430;2024-02-28T15:30:06;15.7;14.7;10.7
74426;PMS7003;62859;53.906;27.430;2024-02-28T15:34:56;15.7;14.7;10.7
74426;PMS7003;62859;53.906;27.430;2024-02-28T15:40:06;18.3;16.5;11.3
74426;PMS7003;62859;53.906;27.430;2024-02-28T15:45:06;17.3;17;10.7
74426;PMS7003;62859;53.906;27.430;2024-02-28T15:49:46;17.3;17;10.7
74426;PMS7003;62859;53.906;27.430;2024-02-28T15:54:37;15.3;14.3;9.7
74426;PMS7003;62859;53.906;27.430;2024-02-28T16:00:06;16;14.3;9.7
74426;PMS7003;62859;53.906;27.430;2024-02-28T16:04:56;16;14.3;9.7
74426;PMS7003;62859;53.906;27.430;2024-02-28T16:10:04;16.5;15.5;10.5
74426;PMS7003;62859;53.906;27.430;2024-02-28T16:14:28;16.5;15.5;10.5
74426;PMS7003;62859;53.906;27.430;2024-02-28T16:20:04;20;15;10.5
74426;PMS7003;62859;53.906;27.430;2024-02-28T16:24:20;20;15;10.5
74426;PMS7003;62859;53.906;27.430;2024-02-28T16:29:20;16.7;13;9
74426;PMS7003;62859;53.906;27.430;2024-02-28T16:34:28;15.7;12.3;8.3
74426;PMS7003;62859;53.906;27.430;2024-02-28T16:39:20;13.3;12;8.3
74426;PMS7003;62859;53.906;27.430;2024-02-28T16:44:20;15.3;14;9.3
74426;PMS7003;62859;53.906;27.430;2024-02-28T16:50:06;12.3;12;9
74426;PMS7003;62859;53.906;27.430;2024-02-28T16:54:40;12.3;12;9
74426;PMS7003;62859;53.906;27.430;2024-02-28T17:00:06;12;11.7;7.7
74426;PMS7003;62859;53.906;27.430;2024-02-28T17:05:07;14;11.3;8
74426;PMS7003;62859;53.906;27.430;2024-02-28T17:15:00;15.3;12;7.5
74426;PMS7003;62859;53.906;27.430;2024-02-28T17:20:06;16;13;9.3
74426;PMS7003;62859;53.906;27.430;2024-02-28T17:24:30;16;13;9.3
74426;PMS7003;62859;53.906;27.430;2024-02-28T17:29:36;16.7;12;9
74426;PMS7003;62859;53.906;27.430;2024-02-28T17:35:06;16.3;14;9
74426;PMS7003;62859;53.906;27.430;2024-02-28T17:39:56;16.3;14;9
74426;PMS7003;62859;53.906;27.430;2024-02-28T17:45:06;15.8;12.3;7.8
74426;PMS7003;62859;53.906;27.430;2024-02-28T17:49:20;15.8;12.3;7.8
74426;PMS7003;62859;53.906;27.430;2024-02-28T17:55:04;14;13.3;9.3
74426;PMS7003;62859;53.906;27.430;2024-02-28T17:59:20;14;13.3;9.3
74426;PMS7003;62859;53.906;27.430;2024-02-28T18:04:20;16.8;13.5;9.3
74426;PMS7003;62859;53.906;27.430;2024-02-28T18:09:28;13.7;13;8.7
74426;PMS7003;62859;53.906;27.430;2024-02-28T18:14:20;17.7;14.7;10
74426;PMS7003;62859;53.906;27.430;2024-02-28T18:19:48;14.7;11.7;9.3
74426;PMS7003;62859;53.906;27.430;2024-02-28T18:25:04;13.3;12;10
74426;PMS7003;62859;53.906;27.430;2024-02-28T18:29:30;13.3;12;10
74426;PMS7003;62859;53.906;27.430;2024-02-28T18:34:46;15;13.7;9
74426;PMS7003;62859;53.906;27.430;2024-02-28T18:40:04;12.5;12.3;8.3
74426;PMS7003;62859;53.906;27.430;2024-02-28T18:44:28;12.5;12.3;8.3
74426;PMS7003;62859;53.906;27.430;2024-02-28T18:49:22;16.3;13.3;9.3
74426;PMS7003;62859;53.906;27.430;2024-02-28T18:54:28;16;15;11.3
74426;PMS7003;62859;53.906;27.430;2024-02-28T18:59:44;16;15.3;10.7
74426;PMS7003;62859;53.906;27.430;2024-02-28T19:04:36;15;14.3;10.8
74426;PMS7003;62859;53.906;27.430;2024-02-28T19:09:22;14;13;9.7
74426;PMS7003;62859;53.906;27.430;2024-02-28T19:14:26;14.3;13;9.3
74426;PMS7003;62859;53.906;27.430;2024-02-28T19:19:44;17.3;16.7;13.3
74426;PMS7003;62859;53.906;27.430;2024-02-28T19:24:20;16.3;15;11.5
74426;PMS7003;62859;53.906;27.430;2024-02-28T19:30:04;16;14.3;11
74426;PMS7003;62859;53.906;27.430;2024-02-28T19:35:04;15;14.3;10
74426;PMS7003;62859;53.906;27.430;2024-02-28T19:39:28;15;14.3;10
74426;PMS7003;62859;53.906;27.430;2024-02-28T19:44:34;14;13.8;9.8
74426;PMS7003;62859;53.906;27.430;2024-02-28T19:49:20;15.7;13.3;9
74426;PMS7003;62859;53.906;27.430;2024-02-28T19:54:28;17;15.7;10
74426;PMS7003;62859;53.906;27.430;2024-02-28T19:59:48;16.8;13.3;9.5
74426;PMS7003;62859;53.906;27.430;2024-02-28T20:05:04;19;15.7;9.3
74426;PMS7003;62859;53.906;27.430;2024-02-28T20:09:20;19;15.7;9.3
74426;PMS7003;62859;53.906;27.430;2024-02-28T20:14:56;17.3;14;10
74426;PMS7003;62859;53.906;27.430;2024-02-28T20:19:46;18;14.5;10
74426;PMS7003;62859;53.906;27.430;2024-02-28T20:25:04;15;14;9
74426;PMS7003;62859;53.906;27.430;2024-02-28T20:29:36;15;14;9
74426;PMS7003;62859;53.906;27.430;2024-02-28T20:34:56;15.7;14.7;10.3
74426;PMS7003;62859;53.906;27.430;2024-02-28T20:39:36;17;14.8;9.8
74426;PMS7003;62859;53.906;27.430;2024-02-28T20:44:56;18.7;15.7;9
74426;PMS7003;62859;53.906;27.430;2024-02-28T20:49:44;14.3;14.3;9
74426;PMS7003;62859;53.906;27.430;2024-02-28T20:54:54;14.3;14;9.7
74426;PMS7003;62859;53.906;27.430;2024-02-28T20:59:34;17.8;15.3;11.5
74426;PMS7003;62859;53.906;27.430;2024-02-28T21:04:54;15;14;10
74426;PMS7003;62859;53.906;27.430;2024-02-28T21:10:04;17.3;15.7;12
74426;PMS7003;62859;53.906;27.430;2024-02-28T21:14:28;17.3;15.7;12
74426;PMS7003;62859;53.906;27.430;2024-02-28T21:19:28;16.3;15;11.3
74426;PMS7003;62859;53.906;27.430;2024-02-28T21:24:20;15.3;14.7;10.3
74426;PMS7003;62859;53.906;27.430;2024-02-28T21:29:20;14;14;9.3
74426;PMS7003;62859;53.906;27.430;2024-02-28T21:34:28;16.7;15.7;11
74426;PMS7003;62859;53.906;27.430;2024-02-28T21:40:04;16.7;14.7;11.7
74426;PMS7003;62859;53.906;27.430;2024-02-28T21:44:38;16.7;14.7;11.7
74426;PMS7003;62859;53.906;27.430;2024-02-28T21:49:22;16;15;9.7
74426;PMS7003;62859;53.906;27.430;2024-02-28T21:54:46;15.5;14.3;10.3
74426;PMS7003;62859;53.906;27.430;2024-02-28T22:00:05;17.7;15;12
74426;PMS7003;62859;53.906;27.430;2024-02-28T22:04:20;17.7;15;12
74426;PMS7003;62859;53.906;27.430;2024-02-28T22:14:36;18.5;17;12
74426;PMS7003;62859;53.906;27.430;2024-02-28T22:19:48;19.3;17.3;12.3
74426;PMS7003;62859;53.906;27.430;2024-02-28T22:24:44;18.3;16.3;13
74426;PMS7003;62859;53.906;27.430;2024-02-28T22:30:05;17.8;17;12.8
74426;PMS7003;62859;53.906;27.430;2024-02-28T22:34:20;17.8;17;12.8
74426;PMS7003;62859;53.906;27.430;2024-02-28T22:39:36;21.3;17;11.7
74426;PMS7003;62859;53.906;27.430;2024-02-28T22:45:04;19.3;16;11.3
74426;PMS7003;62859;53.906;27.430;2024-02-28T22:49:28;19.3;16;11.3
74426;PMS7003;62859;53.906;27.430;2024-02-28T22:54:20;19;18;12.8
74426;PMS7003;62859;53.906;27.430;2024-02-28T22:59:28;17;15.7;11
74426;PMS7003;62859;53.906;27.430;2024-02-28T23:04:36;16;14.3;11
74426;PMS7003;62859;53.906;27.430;2024-02-28T23:09:20;21;19;12.7
74426;PMS7003;62859;53.906;27.430;2024-02-28T23:14:20;31.8;25;17.8
74426;PMS7003;62859;53.906;27.430;2024-02-28T23:19:28;19;16.7;11.7
74426;PMS7003;62859;53.906;27.430;2024-02-28T23:25:04;18;17.3;12.7
74426;PMS7003;62859;53.906;27.430;2024-02-28T23:29:54;18;17.3;12.7
74426;PMS7003;62859;53.906;27.430;2024-02-28T23:34:22;20;17.8;12
74426;PMS7003;62859;53.906;27.430;2024-02-28T23:40:05;18.3;17.3;13
74426;PMS7003;62859;53.906;27.430;2024-02-28T23:44:56;18.3;17.3;13
74426;PMS7003;62859;53.906;27.430;2024-02-28T23:50:04;20.7;19.3;13.3
74426;PMS7003;62859;53.906;27.430;2024-02-28T23:55:04;18;16;11.7
74426;PMS7003;62859;53.906;27.430;2024-02-28T23:59:30;18;16;11.7
